createdAt,value
2018-04-19T00:00:53.219Z,55.94
2018-04-19T00:03:19.118Z,56.49
2018-04-19T00:05:48.692Z,56.57
2018-04-19T00:08:14.580Z,56.62
2018-04-19T00:10:42.273Z,56.91
2018-04-19T00:13:08.173Z,56.68
2018-04-19T00:15:36.855Z,56.96
2018-04-19T00:18:02.767Z,56.52
2018-04-19T00:20:32.076Z,56.48
2018-04-19T00:22:58.024Z,56.85
2018-04-19T00:25:27.076Z,56.97
2018-04-19T00:27:53.008Z,57.29
2018-04-19T00:30:22.336Z,57.58
2018-04-19T00:32:48.211Z,57.68
2018-04-19T00:35:14.123Z,57.68
2018-04-19T00:37:39.971Z,58.18
2018-04-19T00:40:05.868Z,58.31
2018-04-19T00:42:32.746Z,58.46
2018-04-19T00:44:58.651Z,58.47
2018-04-19T00:47:28.168Z,58.86
2018-04-19T00:49:54.063Z,59.13
2018-04-19T00:52:21.772Z,59.17
2018-04-19T00:54:47.682Z,58.97
2018-04-19T00:57:16.435Z,59.11
2018-04-19T00:59:42.322Z,59.22
2018-04-19T01:02:11.228Z,59.77
2018-04-19T01:04:37.124Z,59.86
2018-04-19T01:07:06.024Z,60.06
2018-04-19T01:09:31.935Z,60.36
2018-04-19T01:11:57.820Z,60.18
2018-04-19T01:14:23.715Z,59.97
2018-04-19T01:16:49.577Z,60.06
2018-04-19T01:19:19.054Z,60.37
2018-04-19T01:21:45.009Z,60.63
2018-04-19T01:24:12.260Z,60.44
2018-04-19T01:26:38.159Z,60.19
2018-04-19T01:29:07.562Z,60.37
2018-04-19T01:31:33.453Z,61.32
2018-04-19T01:34:02.020Z,60.63
2018-04-19T01:36:27.904Z,60.98
2018-04-19T01:38:56.632Z,61.59
2018-04-19T01:41:22.540Z,61.83
2018-04-19T01:43:52.078Z,62.11
2018-04-19T01:46:18.005Z,62.12
2018-04-19T01:48:43.883Z,62.30
2018-04-19T01:51:09.759Z,62.13
2018-04-19T01:53:35.632Z,62.41
2018-04-19T01:56:03.802Z,62.44
2018-04-19T01:58:29.715Z,62.56
2018-04-19T02:00:59.438Z,62.47
2018-04-19T02:03:25.358Z,62.98
2018-04-19T02:05:52.455Z,63.24
2018-04-19T02:08:18.298Z,63.32
2018-04-19T02:10:47.460Z,63.29
2018-04-19T02:13:13.354Z,63.20
2018-04-19T02:15:42.890Z,63.62
2018-04-19T02:18:08.815Z,63.70
2018-04-19T02:20:36.736Z,63.42
2018-04-19T02:23:02.670Z,63.76
2018-04-19T02:25:28.562Z,63.60
2018-04-19T02:27:54.458Z,63.48
2018-04-19T02:30:20.327Z,63.72
2018-04-19T02:32:48.398Z,63.91
2018-04-19T02:35:14.252Z,64.09
2018-04-19T02:37:43.835Z,64.43
2018-04-19T02:40:09.691Z,64.33
2018-04-19T02:42:37.947Z,64.36
2018-04-19T02:45:03.855Z,64.54
2018-04-19T02:47:33.291Z,64.91
2018-04-19T02:49:59.151Z,65.29
2018-04-19T02:52:28.516Z,65.26
2018-04-19T02:54:54.404Z,65.31
2018-04-19T02:57:23.519Z,65.31
2018-04-19T02:59:49.461Z,65.26
2018-04-19T03:02:15.371Z,65.33
2018-04-19T03:04:41.288Z,65.15
2018-04-19T03:07:07.188Z,65.49
2018-04-19T03:09:34.000Z,65.68
2018-04-19T03:11:59.942Z,65.59
2018-04-19T03:14:29.307Z,65.39
2018-04-19T03:16:55.245Z,65.98
2018-04-19T03:19:22.932Z,66.09
2018-04-19T03:21:48.838Z,65.90
2018-04-19T03:24:17.567Z,65.76
2018-04-19T03:26:43.478Z,66.61
2018-04-19T03:29:12.268Z,66.60
2018-04-19T03:31:38.156Z,67.14
2018-04-19T03:34:06.844Z,65.62
2018-04-19T03:36:32.795Z,65.38
2018-04-19T03:38:58.648Z,65.86
2018-04-19T03:41:24.567Z,65.92
2018-04-19T03:43:50.458Z,65.70
2018-04-19T03:46:19.495Z,66.00
2018-04-19T03:48:45.377Z,66.43
2018-04-19T03:51:14.667Z,67.12
2018-04-19T03:53:40.591Z,67.56
2018-04-19T03:56:09.987Z,67.80
2018-04-19T03:58:35.843Z,67.65
2018-04-19T04:01:03.024Z,67.50
2018-04-19T04:03:28.933Z,67.56
2018-04-19T04:05:58.160Z,67.41
2018-04-19T04:08:24.021Z,67.82
2018-04-19T04:10:53.349Z,68.20
2018-04-19T04:13:19.257Z,68.48
2018-04-19T04:15:45.179Z,68.60
2018-04-19T04:18:23.475Z,68.77
2018-04-19T04:21:01.764Z,68.61
2018-04-19T04:23:50.479Z,68.35
2018-04-19T04:26:16.405Z,68.31
2018-04-19T04:28:43.167Z,68.44
2018-04-19T04:31:09.097Z,68.63
2018-04-19T04:33:35.261Z,69.25
2018-04-19T04:36:01.228Z,69.96
2018-04-19T04:38:27.150Z,70.16
2018-04-19T04:40:53.053Z,70.03
2018-04-19T04:43:18.937Z,69.89
2018-04-19T04:45:44.829Z,69.98
2018-04-19T04:48:10.681Z,70.23
2018-04-19T04:50:36.619Z,70.54
2018-04-19T04:53:02.497Z,70.32
2018-04-19T04:55:28.340Z,70.15
2018-04-19T04:57:54.234Z,70.34
2018-04-19T05:00:20.115Z,70.50
2018-04-19T05:02:46.007Z,70.17
2018-04-19T05:05:11.931Z,70.36
2018-04-19T05:07:37.892Z,70.61
2018-04-19T05:10:03.812Z,70.38
2018-04-19T05:12:29.683Z,70.77
2018-04-19T05:14:55.566Z,70.45
2018-04-19T05:17:21.504Z,69.60
2018-04-19T05:19:47.406Z,68.17
2018-04-19T05:22:13.338Z,68.26
2018-04-19T05:24:39.261Z,68.50
2018-04-19T05:27:05.160Z,68.27
2018-04-19T05:29:31.040Z,67.93
2018-04-19T05:31:56.915Z,68.07
2018-04-19T05:34:22.782Z,67.89
2018-04-19T05:36:48.659Z,66.96
2018-04-19T05:39:14.580Z,66.45
2018-04-19T05:41:40.491Z,66.84
2018-04-19T05:44:06.371Z,67.12
2018-04-19T05:46:32.247Z,67.23
2018-04-19T05:48:58.135Z,66.99
2018-04-19T05:51:24.018Z,66.28
2018-04-19T05:53:49.940Z,66.21
2018-04-19T05:56:15.810Z,65.90
2018-04-19T05:58:41.727Z,66.45
2018-04-19T06:01:08.451Z,66.83
2018-04-19T06:03:34.322Z,66.94
2018-04-19T06:06:00.234Z,65.95
2018-04-19T06:08:26.103Z,65.22
2018-04-19T06:10:51.995Z,65.04
2018-04-19T06:13:21.195Z,64.62
2018-04-19T06:15:47.057Z,64.72
2018-04-19T06:18:14.615Z,63.87
2018-04-19T06:20:40.575Z,63.04
2018-04-19T06:23:09.396Z,62.89
2018-04-19T06:25:35.298Z,62.21
2018-04-19T06:28:04.244Z,61.46
2018-04-19T06:30:30.162Z,61.37
2018-04-19T06:32:59.210Z,61.58
2018-04-19T06:35:25.091Z,60.66
2018-04-19T06:37:54.503Z,60.87
2018-04-19T06:40:20.411Z,58.72
2018-04-19T06:42:46.327Z,54.95
2018-04-19T06:45:12.264Z,54.35
2018-04-19T06:47:38.175Z,52.89
2018-04-19T06:50:05.899Z,53.80
2018-04-19T06:52:31.773Z,54.17
2018-04-19T06:55:01.023Z,52.91
2018-04-19T06:57:26.923Z,50.55
2018-04-19T06:59:56.337Z,48.64
2018-04-19T07:02:22.262Z,47.91
2018-04-19T07:04:49.376Z,46.62
2018-04-19T07:07:15.277Z,45.14
2018-04-19T07:09:44.427Z,44.59
2018-04-19T07:12:10.358Z,43.39
2018-04-19T07:14:40.377Z,41.33
2018-04-19T07:17:06.298Z,41.25
2018-04-19T07:19:32.218Z,39.18
2018-04-19T07:21:58.056Z,38.89
2018-04-19T07:24:23.964Z,38.12
2018-04-19T07:26:50.567Z,36.93
2018-04-19T07:29:16.483Z,37.31
2018-04-19T07:31:45.248Z,36.80
2018-04-19T07:34:11.233Z,36.75
2018-04-19T07:36:41.024Z,35.57
2018-04-19T07:39:06.943Z,36.04
2018-04-19T07:41:36.453Z,36.35
2018-04-19T07:44:02.355Z,35.93
2018-04-19T07:46:29.998Z,36.51
2018-04-19T07:48:55.924Z,37.28
2018-04-19T07:51:24.142Z,36.72
2018-04-19T07:53:50.007Z,38.10
2018-04-19T07:56:15.947Z,38.55
2018-04-19T07:58:41.824Z,38.65
2018-04-19T08:01:07.735Z,38.24
2018-04-19T08:03:36.735Z,38.36
2018-04-19T08:06:02.631Z,40.15
2018-04-19T08:08:32.094Z,38.88
2018-04-19T08:10:57.995Z,40.57
2018-04-19T08:13:25.335Z,40.67
2018-04-19T08:15:51.272Z,40.25
2018-04-19T08:18:20.565Z,40.13
2018-04-19T08:20:46.472Z,39.97
2018-04-19T08:23:15.791Z,39.40
2018-04-19T08:25:41.738Z,39.57
2018-04-19T08:28:11.295Z,38.76
2018-04-19T08:30:37.228Z,38.13
2018-04-19T08:33:03.103Z,38.69
2018-04-19T08:35:28.973Z,37.92
2018-04-19T08:37:54.880Z,37.72
2018-04-19T08:40:21.512Z,37.67
2018-04-19T08:42:47.460Z,36.65
2018-04-19T08:45:16.788Z,36.82
2018-04-19T08:47:42.708Z,36.44
2018-04-19T08:50:12.166Z,36.06
2018-04-19T08:52:38.087Z,35.99
2018-04-19T08:55:05.537Z,35.74
2018-04-19T08:57:31.424Z,35.87
2018-04-19T09:00:01.192Z,34.86
2018-04-19T09:02:27.075Z,34.62
2018-04-19T09:04:55.261Z,33.81
2018-04-19T09:07:21.168Z,33.42
2018-04-19T09:09:47.064Z,33.11
2018-04-19T09:12:12.956Z,32.38
2018-04-19T09:14:40.176Z,33.04
2018-04-19T09:17:06.915Z,32.67
2018-04-19T09:19:32.899Z,33.22
2018-04-19T09:22:02.306Z,32.71
2018-04-19T09:24:28.159Z,31.65
2018-04-19T09:26:57.645Z,31.32
2018-04-19T09:29:23.540Z,31.73
2018-04-19T09:31:50.650Z,31.68
2018-04-19T09:34:16.616Z,30.65
2018-04-19T09:36:45.416Z,31.44
2018-04-19T09:39:11.292Z,30.32
2018-04-19T09:41:40.587Z,31.50
2018-04-19T09:44:06.436Z,31.17
2018-04-19T09:46:32.305Z,31.47
2018-04-19T09:48:58.210Z,30.17
2018-04-19T09:51:24.111Z,30.20
2018-04-19T09:53:53.396Z,29.66
2018-04-19T09:56:19.287Z,28.88
2018-04-19T09:58:58.912Z,29.48
2018-04-19T10:01:24.839Z,29.94
2018-04-19T10:03:50.727Z,29.88
2018-04-19T10:06:16.610Z,30.28
2018-04-19T10:08:42.501Z,29.34
2018-04-19T10:11:08.409Z,29.11
2018-04-19T10:13:34.323Z,28.74
2018-04-19T10:16:00.251Z,28.23
2018-04-19T10:18:26.172Z,27.20
2018-04-19T10:20:52.040Z,27.39
2018-04-19T10:23:17.971Z,27.34
2018-04-19T10:25:43.882Z,28.10
2018-04-19T10:28:09.787Z,28.12
2018-04-19T10:30:37.166Z,28.80
2018-04-19T10:33:03.088Z,27.58
2018-04-19T10:35:32.426Z,26.64
2018-04-19T10:37:58.339Z,27.25
2018-04-19T10:40:27.552Z,26.09
2018-04-19T10:42:53.459Z,25.82
2018-04-19T10:45:22.723Z,25.87
2018-04-19T10:47:48.595Z,24.07
2018-04-19T10:50:17.764Z,23.49
2018-04-19T10:52:43.668Z,25.09
2018-04-19T10:55:10.755Z,23.92
2018-04-19T10:57:36.628Z,25.11
2018-04-19T11:00:02.551Z,23.87
2018-04-19T11:02:28.429Z,23.48
2018-04-19T11:04:54.331Z,23.52
2018-04-19T11:07:24.111Z,23.16
2018-04-19T11:09:50.013Z,23.20
2018-04-19T11:12:17.529Z,23.61
2018-04-19T11:14:43.835Z,22.94
2018-04-19T11:17:12.920Z,25.40
2018-04-19T11:19:38.841Z,23.82
2018-04-19T11:22:06.414Z,23.99
2018-04-19T11:24:32.285Z,21.93
2018-04-19T11:27:01.113Z,22.85
2018-04-19T11:29:27.003Z,23.98
2018-04-19T11:31:55.861Z,24.91
2018-04-19T11:34:21.776Z,22.52
2018-04-19T11:36:47.674Z,24.54
2018-04-19T11:39:13.578Z,24.46
2018-04-19T11:41:39.487Z,24.31
2018-04-19T11:44:09.134Z,23.90
2018-04-19T11:46:35.075Z,22.35
2018-04-19T11:49:04.090Z,22.95
2018-04-19T11:51:29.959Z,21.91
2018-04-19T11:53:57.230Z,22.09
2018-04-19T11:56:23.139Z,20.87
2018-04-19T11:58:52.730Z,20.41
2018-04-19T12:01:18.644Z,21.16
2018-04-19T12:03:48.159Z,21.66
2018-04-19T12:06:14.059Z,22.99
2018-04-19T12:08:41.363Z,21.12
2018-04-19T12:11:07.263Z,21.57
2018-04-19T12:13:33.189Z,21.06
2018-04-19T12:15:59.074Z,20.57
2018-04-19T12:18:24.988Z,20.28
2018-04-19T12:20:54.160Z,21.02
2018-04-19T12:23:20.084Z,20.72
2018-04-19T12:25:49.416Z,21.76
2018-04-19T12:28:15.307Z,20.34
2018-04-19T12:30:42.899Z,21.13
2018-04-19T12:33:08.817Z,20.39
2018-04-19T12:35:36.861Z,20.65
2018-04-19T12:38:02.790Z,21.47
2018-04-19T12:40:31.603Z,20.87
2018-04-19T12:42:57.470Z,20.28
2018-04-19T12:45:26.346Z,20.65
2018-04-19T12:47:52.263Z,19.93
2018-04-19T12:50:18.144Z,21.59
2018-04-19T12:52:44.038Z,21.75
2018-04-19T12:55:09.942Z,19.50
2018-04-19T12:57:38.165Z,21.11
2018-04-19T13:00:04.055Z,19.19
2018-04-19T13:02:32.949Z,21.06
2018-04-19T13:04:58.870Z,22.06
2018-04-19T13:07:27.782Z,20.60
2018-04-19T13:09:53.658Z,20.47
2018-04-19T13:12:22.751Z,20.13
2018-04-19T13:14:48.777Z,20.10
2018-04-19T13:17:18.159Z,21.83
2018-04-19T13:19:44.114Z,19.80
2018-04-19T13:22:11.853Z,18.65
2018-04-19T13:24:37.732Z,19.06
2018-04-19T13:27:03.646Z,19.00
2018-04-19T13:29:29.600Z,18.76
2018-04-19T13:31:55.501Z,19.37
2018-04-19T13:34:24.730Z,19.02
2018-04-19T13:36:50.646Z,19.97
2018-04-19T13:39:18.329Z,19.57
2018-04-19T13:41:44.257Z,19.08
2018-04-19T13:44:13.865Z,19.53
2018-04-19T13:46:39.752Z,19.99
2018-04-19T13:49:09.517Z,20.34
2018-04-19T13:51:35.460Z,19.99
2018-04-19T13:54:02.922Z,19.25
2018-04-19T13:56:28.861Z,19.83
2018-04-19T13:58:58.081Z,20.85
2018-04-19T14:01:24.002Z,20.75
2018-04-19T14:03:49.868Z,20.38
2018-04-19T14:06:15.765Z,19.79
2018-04-19T14:08:41.611Z,19.75
2018-04-19T14:11:10.571Z,20.98
2018-04-19T14:13:36.460Z,21.12
2018-04-19T14:16:03.570Z,21.33
2018-04-19T14:18:29.447Z,19.68
2018-04-19T14:20:58.280Z,19.67
2018-04-19T14:23:24.188Z,20.13
2018-04-19T14:25:52.983Z,20.49
2018-04-19T14:28:18.867Z,22.23
2018-04-19T14:30:47.687Z,19.85
2018-04-19T14:33:13.599Z,21.05
2018-04-19T14:35:42.376Z,22.46
2018-04-19T14:38:08.266Z,22.53
2018-04-19T14:40:34.108Z,21.24
2018-04-19T14:43:00.778Z,19.06
2018-04-19T14:45:27.451Z,20.48
2018-04-19T14:47:54.383Z,20.01
2018-04-19T14:50:20.311Z,19.05
2018-04-19T14:52:49.721Z,19.24
2018-04-19T14:55:15.674Z,18.75
2018-04-19T14:57:45.161Z,18.77
2018-04-19T15:00:11.074Z,18.00
2018-04-19T15:02:38.631Z,17.74
2018-04-19T15:05:04.553Z,16.23
2018-04-19T15:07:34.051Z,18.58
2018-04-19T15:09:59.983Z,18.87
2018-04-19T15:12:29.455Z,18.26
2018-04-19T15:14:55.396Z,17.83
2018-04-19T15:17:21.308Z,18.66
2018-04-19T15:19:47.223Z,18.83
2018-04-19T15:22:13.183Z,17.69
2018-04-19T15:24:39.629Z,16.70
2018-04-19T15:27:05.533Z,16.51
2018-04-19T15:29:34.715Z,17.38
2018-04-19T15:32:00.626Z,17.87
2018-04-19T15:34:30.080Z,17.32
2018-04-19T15:36:55.951Z,18.70
2018-04-19T15:39:25.225Z,17.38
2018-04-19T15:41:51.120Z,17.84
2018-04-19T15:44:18.713Z,18.73
2018-04-19T15:46:44.615Z,18.32
2018-04-19T15:49:14.451Z,20.11
2018-04-19T15:51:40.385Z,19.75
2018-04-19T15:54:06.304Z,19.25
2018-04-19T15:56:32.451Z,20.47
2018-04-19T15:58:58.332Z,20.92
2018-04-19T16:01:25.265Z,20.63
2018-04-19T16:03:51.147Z,19.92
2018-04-19T16:06:19.640Z,19.47
2018-04-19T16:08:45.552Z,20.60
2018-04-19T16:11:15.359Z,21.42
2018-04-19T16:13:41.276Z,21.44
2018-04-19T16:16:10.750Z,21.32
2018-04-19T16:18:36.670Z,21.53
2018-04-19T16:21:03.402Z,20.73
2018-04-19T16:23:29.308Z,20.17
2018-04-19T16:25:58.491Z,21.21
2018-04-19T16:28:24.417Z,21.67
2018-04-19T16:30:50.308Z,21.54
2018-04-19T16:33:16.195Z,20.79
2018-04-19T16:35:42.088Z,21.10
2018-04-19T16:38:11.500Z,21.13
2018-04-19T16:40:37.400Z,21.09
2018-04-19T16:43:05.083Z,22.28
2018-04-19T16:45:30.975Z,22.04
2018-04-19T16:47:59.486Z,21.84
2018-04-19T16:50:25.347Z,21.84
2018-04-19T16:52:54.178Z,22.66
2018-04-19T16:55:20.083Z,23.86
2018-04-19T16:57:49.884Z,23.05
2018-04-19T17:00:15.806Z,23.22
2018-04-19T17:02:45.071Z,24.09
2018-04-19T17:05:10.972Z,24.46
2018-04-19T17:07:37.016Z,24.72
2018-04-19T17:10:02.949Z,26.08
2018-04-19T17:12:28.857Z,24.83
2018-04-19T17:14:55.895Z,25.60
2018-04-19T17:17:21.788Z,25.88
2018-04-19T17:19:50.443Z,25.68
2018-04-19T17:22:16.381Z,25.37
2018-04-19T17:24:45.032Z,25.74
2018-04-19T17:27:10.917Z,26.37
2018-04-19T17:29:40.263Z,26.61
2018-04-19T17:32:06.151Z,26.24
2018-04-19T17:34:36.006Z,26.26
2018-04-19T17:37:01.835Z,26.67
2018-04-19T17:39:29.483Z,26.63
2018-04-19T17:41:55.349Z,26.36
2018-04-19T17:44:21.208Z,26.68
2018-04-19T17:46:47.090Z,26.78
2018-04-19T17:49:12.952Z,26.87
2018-04-19T17:51:42.469Z,26.93
2018-04-19T17:54:08.387Z,27.08
2018-04-19T17:56:35.843Z,27.53
2018-04-19T17:59:01.752Z,27.41
2018-04-19T18:01:31.463Z,27.67
2018-04-19T18:03:57.378Z,27.85
2018-04-19T18:06:24.806Z,27.79
2018-04-19T18:08:50.714Z,28.17
2018-04-19T18:11:19.991Z,28.82
2018-04-19T18:13:45.850Z,28.14
2018-04-19T18:16:14.338Z,27.84
2018-04-19T18:18:40.189Z,27.98
2018-04-19T18:21:06.053Z,28.22
2018-04-19T18:23:32.019Z,28.79
2018-04-19T18:25:57.931Z,28.64
2018-04-19T18:28:27.607Z,29.68
2018-04-19T18:30:53.492Z,29.89
2018-04-19T18:33:20.670Z,29.61
2018-04-19T18:35:46.542Z,30.13
2018-04-19T18:38:16.195Z,30.18
2018-04-19T18:40:42.056Z,30.59
2018-04-19T18:43:11.487Z,30.85
2018-04-19T18:45:37.415Z,31.26
2018-04-19T18:48:06.428Z,31.46
2018-04-19T18:50:32.347Z,31.78
2018-04-19T18:52:59.621Z,32.53
2018-04-19T18:55:25.510Z,33.25
2018-04-19T18:57:51.412Z,33.01
2018-04-19T19:00:17.321Z,32.87
2018-04-19T19:02:43.279Z,33.21
2018-04-19T19:05:11.526Z,33.10
2018-04-19T19:07:37.449Z,33.09
2018-04-19T19:10:07.042Z,33.10
2018-04-19T19:12:32.956Z,33.31
2018-04-19T19:15:02.442Z,33.42
2018-04-19T19:17:40.638Z,33.52
2018-04-19T19:20:10.304Z,33.70
2018-04-19T19:22:36.205Z,33.85
2018-04-19T19:25:02.069Z,33.89
2018-04-19T19:27:27.956Z,33.98
2018-04-19T19:29:53.912Z,34.10
2018-04-19T19:32:19.799Z,34.24
2018-04-19T19:34:45.726Z,34.52
2018-04-19T19:37:11.628Z,34.55
2018-04-19T19:39:37.531Z,34.65
2018-04-19T19:42:03.522Z,34.60
2018-04-19T19:44:29.425Z,34.73
2018-04-19T19:46:55.340Z,34.86
2018-04-19T19:49:21.253Z,35.21
2018-04-19T19:51:47.135Z,35.17
2018-04-19T19:54:13.054Z,35.17
2018-04-19T19:56:40.897Z,35.21
2018-04-19T19:59:06.821Z,35.35
2018-04-19T20:01:35.280Z,35.39
2018-04-19T20:04:01.233Z,35.60
2018-04-19T20:06:30.002Z,35.65
2018-04-19T20:08:55.913Z,35.82
2018-04-19T20:11:21.834Z,35.95
2018-04-19T20:13:47.706Z,35.85
2018-04-19T20:16:13.636Z,36.05
2018-04-19T20:18:42.121Z,35.49
2018-04-19T20:21:08.117Z,35.56
2018-04-19T20:23:37.451Z,35.43
2018-04-19T20:26:03.342Z,35.74
2018-04-19T20:28:31.267Z,36.58
2018-04-19T20:30:57.143Z,37.60
2018-04-19T20:33:26.000Z,38.46
2018-04-19T20:35:51.944Z,38.82
2018-04-19T20:38:20.583Z,39.50
2018-04-19T20:40:46.493Z,40.07
2018-04-19T20:43:15.637Z,40.38
2018-04-19T20:45:41.570Z,40.77
2018-04-19T20:48:07.423Z,41.35
2018-04-19T20:50:33.304Z,41.79
2018-04-19T20:52:59.230Z,41.70
2018-04-19T20:55:28.760Z,42.49
2018-04-19T20:57:54.779Z,42.61
2018-04-19T21:00:22.296Z,43.19
2018-04-19T21:02:48.190Z,42.97
2018-04-19T21:05:17.979Z,42.90
2018-04-19T21:07:43.902Z,42.95
2018-04-19T21:10:11.470Z,42.77
2018-04-19T21:12:37.432Z,42.30
2018-04-19T21:15:06.479Z,41.29
2018-04-19T21:17:32.390Z,41.04
2018-04-19T21:20:01.826Z,40.59
2018-04-19T21:22:27.740Z,40.53
2018-04-19T21:24:53.643Z,40.74
2018-04-19T21:27:19.553Z,40.60
2018-04-19T21:29:45.464Z,40.91
2018-04-19T21:32:12.894Z,40.95
2018-04-19T21:34:38.829Z,40.64
2018-04-19T21:37:07.219Z,40.37
2018-04-19T21:39:33.123Z,40.21
2018-04-19T21:42:03.010Z,40.09
2018-04-19T21:44:28.878Z,39.92
2018-04-19T21:46:58.107Z,39.66
2018-04-19T21:49:24.034Z,39.53
2018-04-19T21:51:51.499Z,38.88
2018-04-19T21:54:17.390Z,39.18
2018-04-19T21:56:47.147Z,38.99
2018-04-19T21:59:13.092Z,38.91
2018-04-19T22:01:38.995Z,38.84
2018-04-19T22:04:04.941Z,38.67
2018-04-19T22:06:30.825Z,38.74
2018-04-19T22:08:58.001Z,38.89
2018-04-19T22:11:23.881Z,40.87
2018-04-19T22:13:53.523Z,43.55
2018-04-19T22:16:19.484Z,44.37
2018-04-19T22:18:47.542Z,45.58
2018-04-19T22:21:13.454Z,46.44
2018-04-19T22:23:42.801Z,47.06
2018-04-19T22:26:08.687Z,47.40
2018-04-19T22:28:36.622Z,47.75
2018-04-19T22:31:02.521Z,48.18
2018-04-19T22:33:31.987Z,49.02
2018-04-19T22:35:57.877Z,49.78
2018-04-19T22:38:23.774Z,50.00
2018-04-19T22:40:49.811Z,50.27
2018-04-19T22:43:15.698Z,50.56
2018-04-19T22:45:43.111Z,50.63
2018-04-19T22:48:09.049Z,50.55
2018-04-19T22:50:38.403Z,50.28
2018-04-19T22:53:05.765Z,50.06
2018-04-19T22:55:32.702Z,50.07
2018-04-19T22:57:58.651Z,50.70
2018-04-19T23:00:28.331Z,51.32
2018-04-19T23:02:54.251Z,51.50
2018-04-19T23:05:21.743Z,51.73
2018-04-19T23:07:47.632Z,51.72
2018-04-19T23:10:17.143Z,51.81
2018-04-19T23:12:43.109Z,52.22
2018-04-19T23:15:09.023Z,52.23
2018-04-19T23:17:35.004Z,52.22
2018-04-19T23:20:00.874Z,52.55
2018-04-19T23:22:33.876Z,52.82
2018-04-19T23:24:59.869Z,52.99
2018-04-19T23:27:25.829Z,53.26
2018-04-19T23:29:51.775Z,53.60
2018-04-19T23:32:17.703Z,53.80
2018-04-19T23:34:43.640Z,54.31
2018-04-19T23:37:12.485Z,54.58
2018-04-19T23:39:38.387Z,54.85
2018-04-19T23:42:07.755Z,55.20
2018-04-19T23:44:33.674Z,55.49
2018-04-19T23:47:03.482Z,55.38
2018-04-19T23:49:29.387Z,55.27
2018-04-19T23:51:55.313Z,55.42
2018-04-19T23:54:21.236Z,55.11
2018-04-19T23:56:47.165Z,55.48
2018-04-19T23:59:13.703Z,56.41
